createdAt,value
2019-06-27T00:00:49.624Z,20.41
2019-06-27T00:01:49.623Z,20.43
2019-06-27T00:02:49.613Z,20.44
2019-06-27T00:03:49.610Z,20.39
2019-06-27T00:04:49.602Z,20.44
2019-06-27T00:05:49.619Z,20.47
2019-06-27T00:06:49.598Z,20.40
2019-06-27T00:07:49.585Z,20.43
2019-06-27T00:08:49.580Z,20.36
2019-06-27T00:09:49.579Z,20.34
2019-06-27T00:10:49.570Z,20.21
2019-06-27T00:11:49.598Z,20.32
2019-06-27T00:12:49.560Z,20.28
2019-06-27T00:13:49.554Z,20.22
2019-06-27T00:14:49.549Z,20.32
2019-06-27T00:15:49.545Z,20.22
2019-06-27T00:16:49.538Z,20.34
2019-06-27T00:17:49.533Z,20.16
2019-06-27T00:18:49.526Z,20.16
2019-06-27T00:19:49.522Z,20.16
2019-06-27T00:20:49.568Z,20.19
2019-06-27T00:21:49.510Z,20.13
2019-06-27T00:22:49.505Z,20.10
2019-06-27T00:23:49.500Z,20.06
2019-06-27T00:24:49.497Z,20.13
2019-06-27T00:25:49.489Z,20.00
2019-06-27T00:26:57.108Z,19.92
2019-06-27T00:27:49.478Z,19.92
2019-06-27T00:28:49.476Z,19.92
2019-06-27T00:29:49.467Z,19.89
2019-06-27T00:30:49.460Z,19.84
2019-06-27T00:31:49.463Z,19.70
2019-06-27T00:32:49.451Z,19.71
2019-06-27T00:33:49.444Z,19.66
2019-06-27T00:34:49.437Z,19.66
2019-06-27T00:35:49.437Z,19.69
2019-06-27T00:36:49.429Z,19.62
2019-06-27T00:37:49.420Z,19.59
2019-06-27T00:38:49.415Z,19.48
2019-06-27T00:39:49.410Z,19.44
2019-06-27T00:40:49.404Z,19.41
2019-06-27T00:41:49.402Z,19.47
2019-06-27T00:42:49.397Z,19.48
2019-06-27T00:43:49.489Z,19.45
2019-06-27T00:44:49.380Z,19.49
2019-06-27T00:45:49.378Z,19.51
2019-06-27T00:46:49.368Z,19.37
2019-06-27T00:47:49.362Z,19.40
2019-06-27T00:48:49.357Z,19.37
2019-06-27T00:49:49.351Z,19.37
2019-06-27T00:50:49.345Z,19.37
2019-06-27T00:51:49.339Z,19.29
2019-06-27T00:52:49.333Z,19.26
2019-06-27T00:53:49.328Z,19.29
2019-06-27T00:54:49.329Z,19.16
2019-06-27T00:55:49.315Z,19.24
2019-06-27T00:56:49.308Z,19.16
2019-06-27T00:57:49.306Z,19.21
2019-06-27T00:58:49.297Z,19.14
2019-06-27T00:59:49.292Z,19.07
2019-06-27T01:00:49.286Z,19.16
2019-06-27T01:01:49.280Z,18.99
2019-06-27T01:02:49.280Z,18.93
2019-06-27T01:03:49.269Z,18.83
2019-06-27T01:04:49.261Z,18.88
2019-06-27T01:05:49.255Z,18.78
2019-06-27T01:06:49.249Z,18.75
2019-06-27T01:07:49.249Z,18.78
2019-06-27T01:08:49.236Z,18.70
2019-06-27T01:09:49.233Z,18.71
2019-06-27T01:10:49.225Z,18.70
2019-06-27T01:11:49.218Z,18.71
2019-06-27T01:12:49.212Z,18.68
2019-06-27T01:13:49.206Z,18.65
2019-06-27T01:14:49.201Z,18.62
2019-06-27T01:15:49.197Z,18.59
2019-06-27T01:16:49.187Z,18.58
2019-06-27T01:17:49.186Z,18.53
2019-06-27T01:18:49.180Z,18.47
2019-06-27T01:19:49.167Z,18.40
2019-06-27T01:20:49.162Z,18.44
2019-06-27T01:21:49.154Z,18.43
2019-06-27T01:22:49.147Z,18.41
2019-06-27T01:23:49.143Z,18.43
2019-06-27T01:24:49.136Z,18.40
2019-06-27T01:25:49.133Z,18.38
2019-06-27T01:26:49.126Z,18.29
2019-06-27T01:27:49.115Z,18.29
2019-06-27T01:28:49.109Z,18.28
2019-06-27T01:29:49.102Z,18.23
2019-06-27T01:30:49.096Z,18.22
2019-06-27T01:31:49.090Z,18.18
2019-06-27T01:32:49.084Z,18.13
2019-06-27T01:33:49.106Z,18.13
2019-06-27T01:34:49.073Z,18.05
2019-06-27T01:35:49.064Z,18.10
2019-06-27T01:36:49.057Z,18.15
2019-06-27T01:37:49.050Z,18.13
2019-06-27T01:38:49.042Z,18.13
2019-06-27T01:39:49.036Z,18.04
2019-06-27T01:40:49.031Z,17.98
2019-06-27T01:41:49.024Z,17.98
2019-06-27T01:42:49.021Z,17.98
2019-06-27T01:43:52.329Z,17.90
2019-06-27T01:44:49.004Z,18.04
2019-06-27T01:45:48.997Z,18.07
2019-06-27T01:46:48.989Z,18.04
2019-06-27T01:47:48.986Z,18.03
2019-06-27T01:48:48.976Z,17.94
2019-06-27T01:49:48.974Z,17.98
2019-06-27T01:50:48.965Z,17.94
2019-06-27T01:51:48.957Z,17.94
2019-06-27T01:52:48.953Z,17.92
2019-06-27T01:53:48.944Z,17.92
2019-06-27T01:54:48.936Z,17.94
2019-06-27T01:55:48.931Z,17.98
2019-06-27T01:56:48.925Z,17.98
2019-06-27T01:57:48.918Z,17.87
2019-06-27T01:58:48.911Z,17.95
2019-06-27T01:59:48.904Z,17.87
2019-06-27T02:00:48.899Z,17.92
2019-06-27T02:01:48.892Z,17.85
2019-06-27T02:02:48.883Z,17.78
2019-06-27T02:03:48.878Z,17.79
2019-06-27T02:04:48.870Z,17.76
2019-06-27T02:05:48.866Z,17.80
2019-06-27T02:06:48.857Z,17.76
2019-06-27T02:07:48.851Z,17.72
2019-06-27T02:08:48.846Z,17.71
2019-06-27T02:09:48.837Z,17.68
2019-06-27T02:10:48.829Z,17.67
2019-06-27T02:11:48.822Z,17.68
2019-06-27T02:12:48.818Z,17.64
2019-06-27T02:13:48.810Z,17.52
2019-06-27T02:14:48.904Z,17.52
2019-06-27T02:15:48.795Z,17.54
2019-06-27T02:16:48.789Z,17.46
2019-06-27T02:17:48.783Z,17.52
2019-06-27T02:18:48.775Z,17.34
2019-06-27T02:19:48.769Z,17.42
2019-06-27T02:20:48.762Z,17.39
2019-06-27T02:21:48.792Z,17.44
2019-06-27T02:22:48.747Z,17.39
2019-06-27T02:23:48.741Z,17.34
2019-06-27T02:24:48.741Z,17.38
2019-06-27T02:25:48.728Z,17.39
2019-06-27T02:26:48.720Z,17.34
2019-06-27T02:28:02.540Z,17.33
2019-06-27T02:28:48.708Z,17.33
2019-06-27T02:29:48.700Z,17.34
2019-06-27T02:30:48.694Z,17.31
2019-06-27T02:31:48.688Z,17.29
2019-06-27T02:32:48.679Z,17.31
2019-06-27T02:33:48.675Z,17.20
2019-06-27T02:34:48.665Z,17.27
2019-06-27T02:35:48.657Z,17.24
2019-06-27T02:36:48.660Z,17.20
2019-06-27T02:37:48.649Z,17.23
2019-06-27T02:38:48.637Z,17.14
2019-06-27T02:39:48.635Z,17.14
2019-06-27T02:40:48.627Z,17.15
2019-06-27T02:41:48.616Z,17.04
2019-06-27T02:42:48.615Z,17.09
2019-06-27T02:43:48.603Z,17.09
2019-06-27T02:44:48.598Z,17.12
2019-06-27T02:45:48.592Z,17.15
2019-06-27T02:46:48.587Z,17.11
2019-06-27T02:47:48.575Z,17.09
2019-06-27T02:48:48.567Z,17.12
2019-06-27T02:49:50.694Z,17.11
2019-06-27T02:50:48.552Z,17.06
2019-06-27T02:51:48.572Z,17.01
2019-06-27T02:52:48.539Z,17.02
2019-06-27T02:53:48.532Z,17.06
2019-06-27T02:54:48.524Z,17.04
2019-06-27T02:55:48.518Z,16.99
2019-06-27T02:56:48.611Z,17.02
2019-06-27T02:57:48.510Z,16.90
2019-06-27T02:58:48.508Z,16.91
2019-06-27T02:59:48.489Z,16.97
2019-06-27T03:00:48.482Z,16.93
2019-06-27T03:01:48.476Z,16.87
2019-06-27T03:02:48.470Z,16.90
2019-06-27T03:03:48.458Z,16.89
2019-06-27T03:04:48.451Z,16.90
2019-06-27T03:05:48.445Z,16.90
2019-06-27T03:06:48.437Z,16.83
2019-06-27T03:07:48.437Z,16.72
2019-06-27T03:08:48.426Z,16.75
2019-06-27T03:09:48.416Z,16.76
2019-06-27T03:10:48.407Z,16.84
2019-06-27T03:11:48.404Z,16.86
2019-06-27T03:12:48.394Z,16.84
2019-06-27T03:13:48.390Z,16.84
2019-06-27T03:14:48.377Z,16.76
2019-06-27T03:15:48.377Z,16.72
2019-06-27T03:16:48.364Z,16.74
2019-06-27T03:17:48.359Z,16.75
2019-06-27T03:18:48.353Z,16.75
2019-06-27T03:19:48.347Z,16.71
2019-06-27T03:20:48.336Z,16.68
2019-06-27T03:21:48.330Z,16.69
2019-06-27T03:22:48.320Z,16.72
2019-06-27T03:23:48.314Z,16.72
2019-06-27T03:24:48.316Z,16.61
2019-06-27T03:25:48.300Z,16.65
2019-06-27T03:26:48.295Z,16.69
2019-06-27T03:27:48.288Z,16.64
2019-06-27T03:28:53.298Z,16.64
2019-06-27T03:29:48.272Z,16.60
2019-06-27T03:30:48.305Z,16.64
2019-06-27T03:31:48.260Z,16.50
2019-06-27T03:32:48.260Z,16.53
2019-06-27T03:33:48.242Z,16.49
2019-06-27T03:34:48.246Z,16.50
2019-06-27T03:35:48.257Z,16.50
2019-06-27T03:36:48.220Z,16.56
2019-06-27T03:37:48.211Z,16.50
2019-06-27T03:38:48.204Z,16.47
2019-06-27T03:39:48.197Z,16.50
2019-06-27T03:40:48.188Z,16.42
2019-06-27T03:41:48.183Z,16.39
2019-06-27T03:42:48.174Z,16.47
2019-06-27T03:43:48.175Z,16.39
2019-06-27T03:44:48.161Z,16.23
2019-06-27T03:45:48.153Z,16.23
2019-06-27T03:46:48.145Z,16.23
2019-06-27T03:47:48.142Z,16.23
2019-06-27T03:48:48.132Z,16.28
2019-06-27T03:49:48.123Z,16.23
2019-06-27T03:50:48.117Z,16.20
2019-06-27T03:51:48.107Z,16.23
2019-06-27T03:52:48.102Z,16.23
2019-06-27T03:53:48.094Z,16.23
2019-06-27T03:54:48.086Z,16.23
2019-06-27T03:55:48.079Z,16.24
2019-06-27T03:56:48.071Z,16.26
2019-06-27T03:57:48.063Z,16.26
2019-06-27T03:58:48.067Z,16.23
2019-06-27T03:59:48.049Z,16.29
2019-06-27T04:00:48.041Z,16.26
2019-06-27T04:01:48.038Z,16.33
2019-06-27T04:02:48.033Z,16.26
2019-06-27T04:03:48.020Z,16.24
2019-06-27T04:04:48.012Z,16.26
2019-06-27T04:05:48.006Z,16.24
2019-06-27T04:06:48.007Z,16.31
2019-06-27T04:07:47.989Z,16.24
2019-06-27T04:08:47.982Z,16.26
2019-06-27T04:09:47.992Z,16.33
2019-06-27T04:10:47.967Z,16.33
2019-06-27T04:11:47.960Z,16.32
2019-06-27T04:12:47.952Z,16.41
2019-06-27T04:13:47.945Z,16.38
2019-06-27T04:14:47.938Z,16.33
2019-06-27T04:15:47.930Z,16.51
2019-06-27T04:16:49.386Z,16.50
2019-06-27T04:17:47.914Z,16.46
2019-06-27T04:18:47.913Z,16.50
2019-06-27T04:19:47.900Z,16.60
2019-06-27T04:20:47.893Z,16.41
2019-06-27T04:21:47.886Z,16.39
2019-06-27T04:22:47.881Z,16.36
2019-06-27T04:23:47.873Z,16.38
2019-06-27T04:24:47.863Z,16.42
2019-06-27T04:25:47.857Z,16.51
2019-06-27T04:26:47.851Z,16.57
2019-06-27T04:27:47.843Z,16.64
2019-06-27T04:28:47.836Z,16.64
2019-06-27T04:29:47.827Z,16.69
2019-06-27T04:30:47.821Z,16.76
2019-06-27T04:31:47.813Z,16.71
2019-06-27T04:32:47.810Z,16.74
2019-06-27T04:33:47.799Z,16.74
2019-06-27T04:34:47.792Z,16.69
2019-06-27T04:35:47.785Z,16.71
2019-06-27T04:36:47.781Z,16.75
2019-06-27T04:37:47.773Z,16.86
2019-06-27T04:38:47.764Z,16.81
2019-06-27T04:39:47.757Z,16.75
2019-06-27T04:40:47.781Z,16.71
2019-06-27T04:41:47.744Z,16.81
2019-06-27T04:42:47.736Z,16.76
2019-06-27T04:43:47.741Z,16.71
2019-06-27T04:44:47.723Z,16.75
2019-06-27T04:45:47.825Z,16.83
2019-06-27T04:46:47.709Z,16.76
2019-06-27T04:47:47.702Z,16.74
2019-06-27T04:48:47.697Z,16.65
2019-06-27T04:49:47.686Z,16.71
2019-06-27T04:50:47.681Z,16.68
2019-06-27T04:51:47.674Z,16.65
2019-06-27T04:52:47.666Z,16.60
2019-06-27T04:53:47.664Z,16.60
2019-06-27T04:54:47.652Z,16.66
2019-06-27T04:55:47.646Z,16.68
2019-06-27T04:56:47.639Z,16.79
2019-06-27T04:57:47.632Z,16.84
2019-06-27T04:58:47.628Z,16.75
2019-06-27T04:59:53.817Z,16.76
2019-06-27T05:00:47.610Z,16.75
2019-06-27T05:01:47.605Z,16.75
2019-06-27T05:02:47.596Z,16.83
2019-06-27T05:03:47.589Z,16.79
2019-06-27T05:04:47.584Z,16.72
2019-06-27T05:05:47.607Z,16.76
2019-06-27T05:06:47.570Z,16.87
2019-06-27T05:07:47.563Z,16.94
2019-06-27T05:08:47.556Z,16.93
2019-06-27T05:09:47.550Z,16.94
2019-06-27T05:10:47.550Z,16.87
2019-06-27T05:11:47.540Z,16.89
2019-06-27T05:12:47.529Z,16.99
2019-06-27T05:13:47.523Z,16.91
2019-06-27T05:14:47.513Z,16.93
2019-06-27T05:15:47.507Z,16.74
2019-06-27T05:16:47.501Z,16.86
2019-06-27T05:17:47.496Z,16.87
2019-06-27T05:18:47.488Z,17.01
2019-06-27T05:19:47.481Z,16.93
2019-06-27T05:20:47.475Z,17.05
2019-06-27T05:21:47.468Z,17.04
2019-06-27T05:22:47.461Z,17.08
2019-06-27T05:23:47.454Z,17.08
2019-06-27T05:24:47.448Z,17.14
2019-06-27T05:25:47.442Z,17.09
2019-06-27T05:26:47.434Z,17.09
2019-06-27T05:27:47.428Z,17.08
2019-06-27T05:28:47.421Z,17.08
2019-06-27T05:29:47.415Z,17.06
2019-06-27T05:30:51.252Z,16.99
2019-06-27T05:31:47.431Z,16.99
2019-06-27T05:32:47.399Z,17.08
2019-06-27T05:33:47.388Z,17.12
2019-06-27T05:34:47.382Z,17.19
2019-06-27T05:35:47.404Z,17.22
2019-06-27T05:36:47.366Z,17.23
2019-06-27T05:37:47.359Z,17.31
2019-06-27T05:38:47.353Z,17.29
2019-06-27T05:39:47.346Z,17.27
2019-06-27T05:40:47.345Z,17.30
2019-06-27T05:41:50.392Z,17.30
2019-06-27T05:42:47.326Z,17.20
2019-06-27T05:43:47.320Z,17.23
2019-06-27T05:44:47.313Z,17.22
2019-06-27T05:45:47.407Z,17.23
2019-06-27T05:46:47.299Z,17.24
2019-06-27T05:47:47.293Z,17.20
2019-06-27T05:48:47.287Z,17.22
2019-06-27T05:49:47.280Z,17.16
2019-06-27T05:50:47.280Z,17.23
2019-06-27T05:51:47.267Z,17.22
2019-06-27T05:52:47.260Z,17.22
2019-06-27T05:53:47.258Z,17.31
2019-06-27T05:54:47.248Z,17.33
2019-06-27T05:55:47.244Z,17.42
2019-06-27T05:56:47.235Z,17.31
2019-06-27T05:57:47.232Z,17.51
2019-06-27T05:58:47.221Z,17.56
2019-06-27T05:59:47.215Z,17.52
2019-06-27T06:00:47.236Z,17.42
2019-06-27T06:01:47.204Z,17.41
2019-06-27T06:02:47.196Z,17.42
2019-06-27T06:03:47.189Z,17.33
2019-06-27T06:04:47.183Z,17.42
2019-06-27T06:05:47.178Z,17.54
2019-06-27T06:06:47.171Z,17.60
2019-06-27T06:07:47.164Z,17.76
2019-06-27T06:08:47.158Z,17.65
2019-06-27T06:09:47.153Z,17.54
2019-06-27T06:10:47.149Z,17.57
2019-06-27T06:11:47.143Z,17.49
2019-06-27T06:12:47.133Z,17.65
2019-06-27T06:13:47.130Z,17.70
2019-06-27T06:14:47.120Z,17.79
2019-06-27T06:15:47.215Z,17.72
2019-06-27T06:16:47.108Z,17.70
2019-06-27T06:17:47.102Z,17.67
2019-06-27T06:18:47.095Z,17.63
2019-06-27T06:19:47.090Z,17.56
2019-06-27T06:20:47.086Z,17.64
2019-06-27T06:21:47.081Z,17.60
2019-06-27T06:22:47.071Z,17.56
2019-06-27T06:23:47.065Z,17.59
2019-06-27T06:24:47.060Z,17.59
2019-06-27T06:25:47.055Z,17.63
2019-06-27T06:26:47.048Z,17.68
2019-06-27T06:27:47.050Z,17.72
2019-06-27T06:28:47.037Z,17.72
2019-06-27T06:29:47.030Z,17.78
2019-06-27T06:30:47.024Z,17.90
2019-06-27T06:31:49.252Z,17.83
2019-06-27T06:32:47.012Z,17.97
2019-06-27T06:33:47.011Z,17.94
2019-06-27T06:34:47.017Z,18.07
2019-06-27T06:35:46.996Z,18.13
2019-06-27T06:36:46.989Z,18.18
2019-06-27T06:37:46.983Z,18.28
2019-06-27T06:38:46.978Z,18.35
2019-06-27T06:39:46.975Z,18.29
2019-06-27T06:40:46.968Z,18.41
2019-06-27T06:41:46.962Z,18.47
2019-06-27T06:42:46.958Z,18.41
2019-06-27T06:43:46.962Z,18.44
2019-06-27T06:44:46.946Z,18.41
2019-06-27T06:45:46.940Z,18.40
2019-06-27T06:46:46.936Z,18.47
2019-06-27T06:47:46.929Z,18.45
2019-06-27T06:48:46.924Z,18.34
2019-06-27T06:49:46.919Z,18.29
2019-06-27T06:50:46.914Z,18.34
2019-06-27T06:51:46.910Z,18.43
2019-06-27T06:52:46.909Z,18.55
2019-06-27T06:53:46.900Z,18.50
2019-06-27T06:54:46.893Z,18.59
2019-06-27T06:55:46.888Z,18.65
2019-06-27T06:56:46.885Z,18.70
2019-06-27T06:57:46.878Z,18.80
2019-06-27T06:58:46.872Z,18.58
2019-06-27T06:59:46.868Z,18.71
2019-06-27T07:01:00.398Z,18.75
2019-06-27T07:01:46.906Z,18.77
2019-06-27T07:02:46.854Z,18.81
2019-06-27T07:03:46.855Z,18.83
2019-06-27T07:04:46.845Z,18.89
2019-06-27T07:05:46.841Z,18.89
2019-06-27T07:06:46.833Z,19.00
2019-06-27T07:07:46.831Z,19.12
2019-06-27T07:08:46.825Z,19.22
2019-06-27T07:09:46.820Z,19.31
2019-06-27T07:10:46.817Z,19.36
2019-06-27T07:11:46.810Z,19.51
2019-06-27T07:12:46.806Z,19.49
2019-06-27T07:13:46.804Z,19.47
2019-06-27T07:14:46.798Z,19.52
2019-06-27T07:15:46.794Z,19.45
2019-06-27T07:16:46.790Z,19.39
2019-06-27T07:17:46.787Z,19.41
2019-06-27T07:18:46.781Z,19.49
2019-06-27T07:19:46.778Z,19.59
2019-06-27T07:20:46.781Z,19.71
2019-06-27T07:21:46.772Z,19.77
2019-06-27T07:22:46.765Z,19.91
2019-06-27T07:23:46.763Z,19.94
2019-06-27T07:24:46.758Z,20.00
2019-06-27T07:25:46.758Z,20.03
2019-06-27T07:26:46.751Z,20.24
2019-06-27T07:27:46.751Z,20.22
2019-06-27T07:28:46.746Z,20.13
2019-06-27T07:29:46.745Z,20.25
2019-06-27T07:30:46.737Z,20.36
2019-06-27T07:31:46.733Z,20.47
2019-06-27T07:32:46.731Z,20.62
2019-06-27T07:33:46.729Z,20.66
2019-06-27T07:34:46.724Z,20.77
2019-06-27T07:35:46.778Z,20.77
2019-06-27T07:36:46.719Z,20.67
2019-06-27T07:37:46.719Z,20.78
2019-06-27T07:38:47.379Z,20.74
2019-06-27T07:39:46.713Z,20.74
2019-06-27T07:40:46.710Z,20.50
2019-06-27T07:41:46.711Z,20.56
2019-06-27T07:42:46.705Z,20.77
2019-06-27T07:43:46.707Z,20.90
2019-06-27T07:44:46.705Z,21.15
2019-06-27T07:45:46.701Z,21.29
2019-06-27T07:46:46.699Z,21.50
2019-06-27T07:47:46.748Z,21.60
2019-06-27T07:48:46.708Z,21.55
2019-06-27T07:49:46.698Z,21.67
2019-06-27T07:50:46.697Z,21.64
2019-06-27T07:51:46.701Z,21.69
2019-06-27T07:52:46.695Z,21.83
2019-06-27T07:53:46.696Z,21.89
2019-06-27T07:54:46.695Z,21.98
2019-06-27T07:55:46.695Z,22.30
2019-06-27T07:56:46.695Z,22.55
2019-06-27T07:57:46.698Z,22.72
2019-06-27T07:58:46.697Z,22.66
2019-06-27T07:59:46.702Z,22.65
2019-06-27T08:00:46.703Z,22.55
2019-06-27T08:01:46.702Z,22.30
2019-06-27T08:02:46.707Z,22.11
2019-06-27T08:03:46.704Z,21.80
2019-06-27T08:04:46.706Z,21.40
2019-06-27T08:05:46.707Z,21.48
2019-06-27T08:06:46.706Z,21.58
2019-06-27T08:07:46.707Z,21.83
2019-06-27T08:08:46.710Z,22.10
2019-06-27T08:09:46.712Z,22.22
2019-06-27T08:10:46.735Z,22.39
2019-06-27T08:11:46.716Z,22.54
2019-06-27T08:12:46.719Z,22.70
2019-06-27T08:13:46.734Z,22.78
2019-06-27T08:14:46.727Z,23.13
2019-06-27T08:15:46.736Z,23.21
2019-06-27T08:16:46.733Z,23.54
2019-06-27T08:17:46.736Z,23.63
2019-06-27T08:18:46.740Z,23.84
2019-06-27T08:19:46.744Z,23.96
2019-06-27T08:20:46.750Z,24.18
2019-06-27T08:21:46.761Z,23.98
2019-06-27T08:22:46.759Z,23.96
2019-06-27T08:23:46.765Z,23.96
2019-06-27T08:24:46.771Z,24.03
2019-06-27T08:25:46.776Z,24.28
2019-06-27T08:26:46.782Z,24.29
2019-06-27T08:27:46.791Z,24.13
2019-06-27T08:28:46.899Z,24.17
2019-06-27T08:29:46.801Z,24.35
2019-06-27T08:30:46.808Z,24.39
2019-06-27T08:31:51.285Z,24.16
2019-06-27T08:32:46.820Z,24.17
2019-06-27T08:33:46.825Z,24.17
2019-06-27T08:34:46.832Z,24.20
2019-06-27T08:35:46.842Z,24.08
2019-06-27T08:36:46.844Z,24.14
2019-06-27T08:37:46.884Z,24.36
2019-06-27T08:38:46.857Z,24.40
2019-06-27T08:39:46.864Z,24.65
2019-06-27T08:40:46.871Z,24.81
2019-06-27T08:41:46.878Z,24.92
2019-06-27T08:42:46.887Z,25.13
2019-06-27T08:43:46.893Z,25.33
2019-06-27T08:44:46.902Z,25.48
2019-06-27T08:45:46.909Z,25.53
2019-06-27T08:46:46.920Z,25.48
2019-06-27T08:47:46.925Z,25.47
2019-06-27T08:48:46.935Z,25.48
2019-06-27T08:49:46.949Z,25.60
2019-06-27T08:50:46.952Z,25.60
2019-06-27T08:51:46.965Z,25.72
2019-06-27T08:52:46.970Z,25.66
2019-06-27T08:53:46.978Z,25.68
2019-06-27T08:54:46.986Z,25.73
2019-06-27T08:55:46.994Z,25.53
2019-06-27T08:56:47.002Z,25.55
2019-06-27T08:57:47.014Z,25.43
2019-06-27T08:58:47.019Z,25.33
2019-06-27T08:59:47.028Z,25.46
2019-06-27T09:00:47.038Z,25.83
2019-06-27T09:01:47.047Z,26.02
2019-06-27T09:02:47.056Z,25.78
2019-06-27T09:03:47.065Z,25.58
2019-06-27T09:04:47.075Z,25.47
2019-06-27T09:05:47.084Z,25.46
2019-06-27T09:06:47.093Z,25.53
2019-06-27T09:07:47.102Z,25.65
2019-06-27T09:08:47.114Z,25.87
2019-06-27T09:09:47.122Z,25.83
2019-06-27T09:10:47.131Z,25.62
2019-06-27T09:11:47.142Z,25.72
2019-06-27T09:12:47.150Z,26.03
2019-06-27T09:13:47.160Z,26.25
2019-06-27T09:14:47.170Z,26.74
2019-06-27T09:15:47.179Z,27.07
2019-06-27T09:16:47.192Z,26.85
2019-06-27T09:17:47.199Z,26.68
2019-06-27T09:18:47.209Z,26.75
2019-06-27T09:19:47.219Z,26.88
2019-06-27T09:20:47.229Z,26.95
2019-06-27T09:21:47.240Z,26.88
2019-06-27T09:22:47.251Z,26.92
2019-06-27T09:23:47.262Z,27.02
2019-06-27T09:24:47.276Z,27.21
2019-06-27T09:25:47.286Z,27.39
2019-06-27T09:26:47.295Z,27.15
2019-06-27T09:27:47.304Z,27.20
2019-06-27T09:28:47.315Z,27.40
2019-06-27T09:29:47.326Z,27.49
2019-06-27T09:30:47.336Z,27.44
2019-06-27T09:31:47.346Z,27.18
2019-06-27T09:32:47.372Z,27.03
2019-06-27T09:33:47.369Z,26.96
2019-06-27T09:34:47.381Z,26.88
2019-06-27T09:35:47.403Z,26.55
2019-06-27T09:36:47.402Z,26.66
2019-06-27T09:37:47.413Z,26.73
2019-06-27T09:38:47.440Z,26.88
2019-06-27T09:39:47.434Z,27.18
2019-06-27T09:40:47.446Z,27.35
2019-06-27T09:41:47.457Z,27.25
2019-06-27T09:42:47.470Z,27.20
2019-06-27T09:43:47.493Z,27.42
2019-06-27T09:44:47.491Z,27.51
2019-06-27T09:45:47.506Z,27.67
2019-06-27T09:46:47.513Z,27.89
2019-06-27T09:47:47.526Z,27.90
2019-06-27T09:48:47.537Z,28.00
2019-06-27T09:49:47.548Z,28.27
2019-06-27T09:50:47.559Z,28.54
2019-06-27T09:51:47.585Z,28.82
2019-06-27T09:52:47.586Z,28.81
2019-06-27T09:53:47.599Z,28.62
2019-06-27T09:54:47.606Z,28.54
2019-06-27T09:55:47.619Z,28.74
2019-06-27T09:56:47.632Z,28.41
2019-06-27T09:57:47.645Z,28.44
2019-06-27T09:58:47.670Z,28.52
2019-06-27T09:59:47.669Z,28.67
2019-06-27T10:00:47.680Z,28.57
2019-06-27T10:01:47.695Z,28.75
2019-06-27T10:02:47.709Z,28.54
2019-06-27T10:03:47.717Z,28.26
2019-06-27T10:04:47.731Z,28.35
2019-06-27T10:05:47.743Z,28.57
2019-06-27T10:06:47.754Z,28.72
2019-06-27T10:07:47.767Z,28.86
2019-06-27T10:08:47.779Z,28.94
2019-06-27T10:09:47.792Z,28.93
2019-06-27T10:10:47.812Z,28.94
2019-06-27T10:11:47.817Z,28.74
2019-06-27T10:12:47.829Z,28.49
2019-06-27T10:13:47.844Z,28.62
2019-06-27T10:14:47.855Z,28.54
2019-06-27T10:15:47.866Z,28.56
2019-06-27T10:16:47.880Z,28.19
2019-06-27T10:17:47.893Z,28.25
2019-06-27T10:18:47.904Z,28.72
2019-06-27T10:19:47.917Z,28.89
2019-06-27T10:20:47.933Z,29.20
2019-06-27T10:21:47.943Z,29.53
2019-06-27T10:22:47.956Z,29.60
2019-06-27T10:23:47.967Z,29.59
2019-06-27T10:24:48.006Z,29.26
2019-06-27T10:25:47.993Z,28.84
2019-06-27T10:26:48.005Z,28.76
2019-06-27T10:27:48.018Z,28.91
2019-06-27T10:28:48.032Z,29.12
2019-06-27T10:29:48.045Z,29.07
2019-06-27T10:30:49.306Z,28.93
2019-06-27T10:31:48.074Z,28.49
2019-06-27T10:32:58.436Z,28.57
2019-06-27T10:33:48.098Z,28.54
2019-06-27T10:34:48.114Z,28.59
2019-06-27T10:35:48.131Z,28.89
2019-06-27T10:36:48.133Z,29.16
2019-06-27T10:37:48.153Z,29.36
2019-06-27T10:38:48.162Z,29.47
2019-06-27T10:39:48.171Z,29.54
2019-06-27T10:40:48.185Z,29.61
2019-06-27T10:41:48.197Z,29.61
2019-06-27T10:42:48.209Z,29.45
2019-06-27T10:43:48.239Z,29.63
2019-06-27T10:44:48.237Z,29.66
2019-06-27T10:45:48.253Z,29.81
2019-06-27T10:46:48.264Z,29.90
2019-06-27T10:47:48.274Z,29.94
2019-06-27T10:48:48.288Z,30.15
2019-06-27T10:49:48.301Z,29.93
2019-06-27T10:50:48.316Z,29.50
2019-06-27T10:51:48.327Z,28.88
2019-06-27T10:52:48.339Z,28.84
2019-06-27T10:53:48.355Z,29.19
2019-06-27T10:54:48.370Z,29.66
2019-06-27T10:55:48.389Z,30.06
2019-06-27T10:56:48.396Z,30.62
2019-06-27T10:57:48.405Z,30.83
2019-06-27T10:58:48.416Z,31.02
2019-06-27T10:59:48.435Z,30.87
2019-06-27T11:00:48.445Z,30.75
2019-06-27T11:01:48.465Z,30.99
2019-06-27T11:02:48.470Z,31.03
2019-06-27T11:03:48.489Z,31.06
2019-06-27T11:04:48.497Z,30.97
2019-06-27T11:05:48.523Z,31.09
2019-06-27T11:06:48.523Z,31.15
2019-06-27T11:07:48.537Z,31.42
2019-06-27T11:08:48.555Z,31.18
2019-06-27T11:09:50.296Z,31.37
2019-06-27T11:10:48.578Z,31.54
2019-06-27T11:11:48.592Z,31.80
2019-06-27T11:12:48.612Z,31.65
2019-06-27T11:13:58.386Z,31.69
2019-06-27T11:14:58.503Z,31.74
2019-06-27T11:15:49.474Z,31.80
2019-06-27T11:16:48.669Z,31.84
2019-06-27T11:17:48.679Z,31.66
2019-06-27T11:18:48.690Z,31.69
2019-06-27T11:19:52.635Z,31.84
2019-06-27T11:20:48.729Z,31.94
2019-06-27T11:21:48.732Z,32.18
2019-06-27T11:22:48.747Z,32.51
2019-06-27T11:23:48.760Z,32.15
2019-06-27T11:24:48.771Z,32.16
2019-06-27T11:25:48.786Z,32.08
2019-06-27T11:26:48.801Z,32.01
2019-06-27T11:27:48.815Z,31.69
2019-06-27T11:28:48.827Z,31.58
2019-06-27T11:29:48.845Z,31.51
2019-06-27T11:30:48.869Z,31.39
2019-06-27T11:31:48.879Z,31.27
2019-06-27T11:32:48.882Z,30.90
2019-06-27T11:33:48.899Z,30.81
2019-06-27T11:34:48.911Z,31.06
2019-06-27T11:35:48.924Z,31.20
2019-06-27T11:36:48.958Z,31.21
2019-06-27T11:37:48.952Z,31.46
2019-06-27T11:38:48.964Z,31.18
2019-06-27T11:39:48.982Z,30.92
2019-06-27T11:40:49.033Z,30.80
2019-06-27T11:41:49.006Z,30.80
2019-06-27T11:42:49.023Z,30.94
2019-06-27T11:43:49.035Z,30.81
2019-06-27T11:44:49.047Z,30.83
2019-06-27T11:45:49.060Z,30.57
2019-06-27T11:46:49.095Z,30.44
2019-06-27T11:47:49.085Z,30.27
2019-06-27T11:48:49.101Z,30.12
2019-06-27T11:49:49.113Z,30.47
2019-06-27T11:50:49.124Z,30.61
2019-06-27T11:51:49.139Z,30.96
2019-06-27T11:52:49.154Z,31.28
2019-06-27T11:53:49.167Z,31.47
2019-06-27T11:54:49.182Z,31.52
2019-06-27T11:55:49.191Z,31.69
2019-06-27T11:56:49.204Z,31.92
2019-06-27T11:57:49.218Z,31.66
2019-06-27T11:58:49.249Z,31.40
2019-06-27T11:59:49.243Z,31.28
2019-06-27T12:00:49.282Z,30.90
2019-06-27T12:01:49.270Z,31.27
2019-06-27T12:02:49.285Z,31.54
2019-06-27T12:03:50.019Z,31.55
2019-06-27T12:04:49.311Z,31.37
2019-06-27T12:05:49.323Z,31.09
2019-06-27T12:06:49.335Z,31.18
2019-06-27T12:07:49.351Z,31.00
2019-06-27T12:08:49.361Z,31.17
2019-06-27T12:09:49.379Z,31.52
2019-06-27T12:10:49.389Z,32.00
2019-06-27T12:11:49.400Z,31.92
2019-06-27T12:12:49.413Z,31.76
2019-06-27T12:13:49.427Z,31.65
2019-06-27T12:14:49.474Z,31.56
2019-06-27T12:15:51.704Z,31.22
2019-06-27T12:16:49.465Z,31.37
2019-06-27T12:17:49.480Z,31.34
2019-06-27T12:18:49.491Z,31.31
2019-06-27T12:19:49.505Z,31.64
2019-06-27T12:20:49.515Z,32.07
2019-06-27T12:21:49.529Z,32.33
2019-06-27T12:22:49.540Z,32.64
2019-06-27T12:23:49.553Z,32.67
2019-06-27T12:24:49.566Z,32.68
2019-06-27T12:25:49.580Z,32.59
2019-06-27T12:26:49.595Z,32.68
2019-06-27T12:27:49.606Z,32.93
2019-06-27T12:28:49.619Z,32.85
2019-06-27T12:29:49.686Z,32.83
2019-06-27T12:30:49.651Z,32.49
2019-06-27T12:31:51.761Z,32.49
2019-06-27T12:32:52.572Z,32.74
2019-06-27T12:34:05.581Z,32.29
2019-06-27T12:34:49.697Z,32.48
2019-06-27T12:35:49.708Z,32.67
2019-06-27T12:36:49.721Z,32.90
2019-06-27T12:37:49.740Z,32.67
2019-06-27T12:38:49.746Z,32.49
2019-06-27T12:39:49.758Z,32.70
2019-06-27T12:40:49.770Z,32.71
2019-06-27T12:41:49.783Z,32.89
2019-06-27T12:42:49.794Z,33.07
2019-06-27T12:43:49.814Z,32.83
2019-06-27T12:44:49.821Z,32.73
2019-06-27T12:45:49.831Z,32.90
2019-06-27T12:46:49.843Z,32.97
2019-06-27T12:47:49.855Z,33.11
2019-06-27T12:48:49.917Z,33.22
2019-06-27T12:50:01.188Z,33.36
2019-06-27T12:50:49.891Z,33.50
2019-06-27T12:51:49.903Z,33.28
2019-06-27T12:52:49.914Z,32.90